Time;durP1;ratioP1;P1;durP2;ratioP2;P2;SDS_P1;SDS_P2;PMS_P1;PMS_P2;Temp;Humidity;BMP_temperature;BMP_pressure;BME280_temperature;BME280_humidity;BME280_pressure;Samples;Min_cycle;Max_cycle;Signal;HPM_P1;HPM_P2
2022/08/24 00:02:22;;;;;;;0.20;0.20;;;18.90;99.90;;;;;;5050482;28;20037;-78
2022/08/24 00:04:49;;;;;;;0.32;0.32;;;18.80;99.90;;;;;;5056948;28;20183;-77
2022/08/24 00:07:16;;;;;;;0.50;0.50;;;18.80;99.90;;;;;;5028165;28;20103;-73
2022/08/24 00:09:42;;;;;;;0.93;0.63;;;18.70;99.90;;;;;;5049155;28;20045;-75
2022/08/24 00:12:08;;;;;;;2.83;0.73;;;18.60;99.90;;;;;;5047286;28;20049;-73
2022/08/24 00:14:33;;;;;;;;;;;18.50;99.90;;;;;;5051696;28;20032;-77
2022/08/24 00:16:59;;;;;;;0.20;0.20;;;18.50;99.90;;;;;;5049577;28;19970;-76
2022/08/24 00:19:26;;;;;;;0.20;0.20;;;18.50;99.90;;;;;;5049096;28;20421;-78
2022/08/24 00:21:52;;;;;;;0.15;0.15;;;18.40;99.90;;;;;;5048483;28;20048;-77
2022/08/24 00:24:18;;;;;;;;;;;18.30;99.90;;;;;;5052166;28;20106;-73
2022/08/24 00:26:45;;;;;;;0.30;0.30;;;18.20;99.90;;;;;;5053214;28;19920;-78
2022/08/24 00:29:12;;;;;;;0.10;0.10;;;18.20;99.90;;;;;;5053191;28;20524;-80
2022/08/24 00:31:39;;;;;;;0.38;0.38;;;18.10;99.90;;;;;;5048513;28;20040;-77
2022/08/24 00:34:05;;;;;;;0.65;0.57;;;18.10;99.90;;;;;;5066116;28;20718;-80
2022/08/24 00:36:31;;;;;;;0.30;0.30;;;18.00;99.90;;;;;;5048839;28;20044;-77
2022/08/24 00:38:57;;;;;;;0.30;0.30;;;18.10;99.90;;;;;;5051581;28;20053;-77
2022/08/24 00:41:23;;;;;;;;;;;18.00;99.90;;;;;;5049599;28;20076;-76
2022/08/24 00:43:58;;;;;;;0.20;0.20;;;18.00;99.90;;;;;;5048833;28;19924;-77
2022/08/24 00:46:48;;;;;;;0.20;0.20;;;18.00;99.90;;;;;;5046298;28;20063;-79
2022/08/24 00:49:48;;;;;;;0.20;0.20;;;18.00;99.90;;;;;;5039640;28;20394;-77
2022/08/24 00:52:30;;;;;;;0.30;0.30;;;17.90;99.90;;;;;;5050825;28;20540;-78
2022/08/24 00:55:04;;;;;;;0.50;0.50;;;17.90;99.90;;;;;;5047692;28;20482;-80
2022/08/24 00:57:35;;;;;;;0.22;0.22;;;17.80;99.90;;;;;;5048182;28;20394;-80
2022/08/24 01:00:09;;;;;;;0.30;0.30;;;17.80;99.90;;;;;;5048899;28;20046;-80
2022/08/24 01:02:40;;;;;;;0.20;0.20;;;17.80;99.90;;;;;;5048716;28;20045;-78
2022/08/24 01:05:09;;;;;;;0.22;0.22;;;17.80;99.90;;;;;;5048523;28;20045;-82
2022/08/24 01:07:36;;;;;;;0.65;0.55;;;17.80;99.90;;;;;;5044695;28;20390;-75
2022/08/24 01:10:07;;;;;;;0.20;0.20;;;17.80;99.90;;;;;;5061329;28;20422;-78
2022/08/24 01:12:34;;;;;;;0.85;0.60;;;17.80;99.90;;;;;;5047528;28;20098;-81
2022/08/24 01:15:02;;;;;;;0.28;0.28;;;17.80;99.90;;;;;;5052020;28;20049;-81
2022/08/24 01:20:12;;;;;;;0.20;0.20;;;17.80;99.90;;;;;;5041745;28;20044;-75
2022/08/24 01:23:06;;;;;;;0.20;0.20;;;17.80;99.90;;;;;;5043097;28;20772;-79
2022/08/24 01:25:34;;;;;;;0.70;0.70;;;17.70;99.90;;;;;;5049674;28;20040;-75
2022/08/24 01:28:06;;;;;;;1.85;1.48;;;17.70;99.90;;;;;;5049796;28;20405;-79
2022/08/24 01:30:31;;;;;;;0.80;0.80;;;17.70;99.90;;;;;;5049413;28;20064;-78
2022/08/24 01:32:59;;;;;;;;;;;17.80;99.90;;;;;;5050336;28;20037;-80
2022/08/24 01:35:26;;;;;;;0.30;0.30;;;17.90;99.90;;;;;;5051183;28;20054;-84
2022/08/24 01:37:54;;;;;;;0.20;0.20;;;17.90;99.90;;;;;;5048988;28;20474;-77
2022/08/24 01:40:25;;;;;;;0.30;0.30;;;18.00;99.90;;;;;;5068911;28;20053;-76
2022/08/24 01:42:51;;;;;;;0.47;0.40;;;18.00;99.90;;;;;;5048725;28;20048;-79
2022/08/24 01:45:18;;;;;;;0.50;0.47;;;18.00;99.90;;;;;;5049416;28;20437;-81
2022/08/24 01:47:45;;;;;;;0.30;0.30;;;17.90;99.90;;;;;;5053548;28;20044;-79
2022/08/24 01:50:11;;;;;;;0.65;0.65;;;17.80;99.90;;;;;;5053328;28;20037;-78
2022/08/24 01:52:40;;;;;;;0.10;0.10;;;17.80;99.90;;;;;;5052634;28;20041;-80
2022/08/24 01:55:11;;;;;;;0.40;0.40;;;17.70;99.90;;;;;;5063116;28;20037;-79
2022/08/24 01:57:39;;;;;;;0.15;0.15;;;17.60;99.90;;;;;;5050171;28;20099;-80
2022/08/24 02:00:08;;;;;;;0.20;0.20;;;17.60;99.90;;;;;;5046642;28;20059;-78
2022/08/24 02:02:33;;;;;;;0.20;0.20;;;17.50;99.90;;;;;;5035221;28;20077;-74
2022/08/24 02:04:59;;;;;;;;;;;17.50;99.90;;;;;;5047209;28;20095;-74
2022/08/24 02:07:25;;;;;;;0.20;0.20;;;17.40;99.90;;;;;;5048725;28;19966;-79
2022/08/24 02:09:51;;;;;;;0.20;0.20;;;17.40;99.90;;;;;;5049167;28;20127;-75
2022/08/24 02:12:17;;;;;;;;;;;17.30;99.90;;;;;;5047677;28;20146;-77
2022/08/24 02:14:43;;;;;;;0.32;0.32;;;17.30;99.90;;;;;;5049769;28;19921;-80
2022/08/24 02:17:10;;;;;;;;;;;17.20;99.90;;;;;;5057596;28;20040;-76
2022/08/24 02:19:36;;;;;;;0.20;0.20;;;17.20;99.90;;;;;;5051635;28;19916;-79
2022/08/24 02:22:04;;;;;;;0.20;0.20;;;17.20;99.90;;;;;;5051052;28;20083;-77
2022/08/24 02:24:31;;;;;;;0.80;0.73;;;17.10;99.90;;;;;;5047915;28;20063;-78
2022/08/24 02:26:57;;;;;;;0.30;0.30;;;17.20;99.90;;;;;;5058971;28;20088;-75
2022/08/24 02:29:23;;;;;;;;;;;17.20;99.90;;;;;;5051117;28;20052;-79
2022/08/24 02:31:48;;;;;;;0.47;0.47;;;17.20;99.90;;;;;;5050579;28;19917;-80
2022/08/24 02:34:14;;;;;;;;;;;17.20;99.90;;;;;;5053807;28;20041;-82
2022/08/24 02:36:40;;;;;;;0.30;0.30;;;17.20;99.90;;;;;;5041731;28;19921;-81
2022/08/24 02:39:07;;;;;;;;;;;17.20;99.90;;;;;;5046955;28;20132;-82
2022/08/24 02:41:33;;;;;;;2.05;0.60;;;17.20;99.90;;;;;;5048307;28;20404;-80
2022/08/24 02:43:59;;;;;;;0.20;0.20;;;17.20;99.90;;;;;;5027292;28;20045;-77
2022/08/24 02:46:25;;;;;;;;;;;17.20;99.90;;;;;;5043991;28;20075;-75
2022/08/24 02:48:51;;;;;;;0.20;0.20;;;17.10;99.90;;;;;;5051155;28;20380;-78
2022/08/24 02:51:21;;;;;;;;;;;17.20;99.90;;;;;;5050776;28;20127;-78
2022/08/24 02:53:47;;;;;;;0.28;0.28;;;17.10;99.90;;;;;;5048139;28;21074;-80
2022/08/24 02:56:13;;;;;;;;;;;17.10;99.90;;;;;;5051696;28;20490;-79
2022/08/24 02:58:38;;;;;;;0.20;0.20;;;17.00;99.90;;;;;;5051090;28;19924;-77
2022/08/24 03:01:04;;;;;;;;;;;17.00;99.90;;;;;;5034136;28;20045;-79
2022/08/24 03:03:29;;;;;;;0.35;0.35;;;16.90;99.90;;;;;;5054149;28;20362;-80
2022/08/24 03:05:55;;;;;;;;;;;16.90;99.90;;;;;;5050590;28;20037;-77
2022/08/24 03:08:21;;;;;;;0.20;0.20;;;16.90;99.90;;;;;;5051349;28;19916;-75
2022/08/24 03:10:47;;;;;;;;;;;16.90;99.90;;;;;;5051317;28;20045;-78
2022/08/24 03:13:12;;;;;;;0.30;0.30;;;16.90;99.90;;;;;;5050724;28;20404;-76
2022/08/24 03:15:38;;;;;;;;;;;16.90;99.90;;;;;;5050255;28;20449;-78
2022/08/24 03:18:04;;;;;;;0.20;0.20;;;16.80;99.90;;;;;;5050816;28;20387;-78
2022/08/24 03:20:30;;;;;;;;;;;16.80;99.90;;;;;;5051220;28;20052;-82
2022/08/24 03:22:56;;;;;;;0.10;0.10;;;16.80;99.90;;;;;;5052063;28;19921;-80
2022/08/24 03:25:23;;;;;;;;;;;16.70;99.90;;;;;;5049099;28;20037;-77
2022/08/24 03:27:50;;;;;;;0.20;0.20;;;16.70;99.90;;;;;;5050512;28;19916;-78
2022/08/24 03:30:16;;;;;;;0.30;0.30;;;16.70;99.90;;;;;;5049989;28;20041;-78
2022/08/24 03:32:42;;;;;;;0.20;0.20;;;16.70;99.90;;;;;;5048370;28;20041;-79
2022/08/24 03:35:10;;;;;;;0.40;0.40;;;16.70;99.90;;;;;;5015693;28;20398;-77
2022/08/24 03:37:36;;;;;;;0.20;0.20;;;16.60;99.90;;;;;;5056481;28;20029;-79
2022/08/24 03:40:02;;;;;;;;;;;16.60;99.90;;;;;;5058491;28;20414;-78
2022/08/24 03:42:28;;;;;;;0.23;0.23;;;16.60;99.90;;;;;;5048490;28;20007;-81
2022/08/24 03:44:54;;;;;;;;;;;16.60;99.90;;;;;;5054408;28;20123;-78
2022/08/24 03:47:21;;;;;;;0.20;0.20;;;16.60;99.90;;;;;;5045154;28;19924;-77
2022/08/24 03:49:47;;;;;;;0.30;0.30;;;16.60;99.90;;;;;;5058870;28;20081;-76
2022/08/24 03:52:13;;;;;;;0.20;0.20;;;16.60;99.90;;;;;;5033190;28;20072;-78
2022/08/24 03:54:38;;;;;;;;;;;16.50;99.90;;;;;;5059013;28;20512;-78
2022/08/24 03:57:04;;;;;;;0.25;0.25;;;16.50;99.90;;;;;;5049335;28;19920;-77
2022/08/24 03:59:30;;;;;;;;;;;16.40;99.90;;;;;;5056186;28;20442;-75
2022/08/24 04:01:56;;;;;;;0.30;0.30;;;16.40;99.90;;;;;;5063461;28;20361;-79
2022/08/24 04:04:23;;;;;;;0.25;0.25;;;16.40;99.90;;;;;;5048275;28;20045;-80
2022/08/24 04:06:48;;;;;;;0.20;0.20;;;16.40;99.90;;;;;;5075030;28;20055;-78
2022/08/24 04:09:15;;;;;;;0.20;0.20;;;16.30;99.90;;;;;;5050047;28;20044;-76
2022/08/24 04:11:42;;;;;;;0.30;0.30;;;16.30;99.90;;;;;;5061385;28;20045;-78
2022/08/24 04:14:08;;;;;;;0.20;0.20;;;16.30;99.90;;;;;;5049645;28;20402;-79
2022/08/24 04:16:34;;;;;;;0.30;0.30;;;16.30;99.90;;;;;;5030779;28;20556;-79
2022/08/24 04:19:00;;;;;;;;;;;16.30;99.90;;;;;;5032762;28;20124;-77
2022/08/24 04:21:32;;;;;;;0.82;0.82;;;16.30;99.90;;;;;;5052076;28;19985;-78
2022/08/24 04:23:58;;;;;;;0.77;0.77;;;16.30;99.90;;;;;;5037918;28;20052;-80
2022/08/24 04:26:26;;;;;;;0.20;0.20;;;16.30;99.90;;;;;;5049080;28;20047;-79
2022/08/24 04:28:54;;;;;;;0.20;0.20;;;16.40;99.90;;;;;;5048277;28;20053;-74
2022/08/24 04:31:20;;;;;;;0.30;0.30;;;16.50;99.90;;;;;;5045947;28;20123;-79
2022/08/24 04:33:48;;;;;;;0.28;0.28;;;16.50;99.90;;;;;;5048245;28;20036;-78
2022/08/24 04:36:15;;;;;;;0.30;0.30;;;16.50;99.90;;;;;;5060825;28;20368;-76
2022/08/24 04:38:42;;;;;;;0.43;0.43;;;16.50;99.90;;;;;;5047468;28;20057;-76
2022/08/24 04:41:11;;;;;;;0.85;0.85;;;16.40;99.90;;;;;;5050149;28;20699;-79
2022/08/24 04:43:39;;;;;;;0.40;0.40;;;16.40;99.90;;;;;;5048747;28;20057;-77
2022/08/24 04:46:06;;;;;;;0.20;0.20;;;16.50;99.90;;;;;;5046701;28;20148;-80
2022/08/24 04:48:32;;;;;;;0.20;0.20;;;16.50;99.90;;;;;;5045525;28;20063;-76
2022/08/24 04:51:03;;;;;;;0.40;0.40;;;16.50;99.90;;;;;;5032372;28;20126;-78
2022/08/24 04:53:32;;;;;;;0.20;0.20;;;16.50;99.90;;;;;;5030776;28;20036;-76
2022/08/24 04:55:58;;;;;;;0.20;0.20;;;16.60;99.90;;;;;;5044490;28;20119;-80
2022/08/24 04:58:24;;;;;;;;;;;16.60;99.90;;;;;;5033116;28;20041;-78
2022/08/24 05:00:50;;;;;;;0.20;0.20;;;16.60;99.90;;;;;;5047927;28;20294;-80
2022/08/24 05:03:15;;;;;;;;;;;16.60;99.90;;;;;;5032931;28;20045;-77
2022/08/24 05:05:48;;;;;;;0.32;0.32;;;16.70;99.90;;;;;;5047679;28;19971;-80
2022/08/24 05:08:19;;;;;;;0.40;0.40;;;16.70;99.90;;;;;;5031280;28;20118;-80
2022/08/24 05:10:47;;;;;;;0.30;0.30;;;16.80;99.90;;;;;;5039857;28;20052;-77
2022/08/24 05:13:14;;;;;;;0.43;0.32;;;16.90;99.90;;;;;;5055475;28;20045;-78
2022/08/24 05:15:42;;;;;;;0.20;0.20;;;16.90;99.90;;;;;;5049679;28;20036;-76
2022/08/24 05:18:10;;;;;;;0.77;0.77;;;16.90;99.90;;;;;;5051659;28;20049;-78
2022/08/24 05:20:44;;;;;;;0.43;0.40;;;17.00;99.90;;;;;;5049135;28;20087;-78
2022/08/24 05:23:11;;;;;;;0.20;0.20;;;17.00;99.90;;;;;;5048328;28;20397;-80
2022/08/24 05:25:41;;;;;;;0.20;0.20;;;17.00;99.90;;;;;;5050630;28;20040;-79
2022/08/24 05:28:07;;;;;;;0.30;0.30;;;17.10;99.90;;;;;;5047719;28;20116;-78
2022/08/24 05:30:33;;;;;;;0.20;0.20;;;17.10;99.90;;;;;;5052486;28;20051;-76
2022/08/24 05:32:58;;;;;;;;;;;17.20;99.90;;;;;;5049422;28;20045;-77
2022/08/24 05:35:24;;;;;;;0.10;0.10;;;17.30;99.90;;;;;;5027080;28;20268;-76
2022/08/24 05:37:50;;;;;;;;;;;17.30;99.90;;;;;;5044143;28;20041;-76
2022/08/24 05:40:18;;;;;;;0.20;0.20;;;17.30;99.90;;;;;;5053472;28;19920;-77
2022/08/24 05:42:44;;;;;;;0.30;0.30;;;17.50;99.90;;;;;;5054586;28;20490;-77
2022/08/24 05:45:11;;;;;;;0.30;0.30;;;17.50;99.90;;;;;;5064082;28;20043;-76
2022/08/24 05:47:43;;;;;;;0.10;0.10;;;17.60;99.90;;;;;;5032203;28;20048;-76
2022/08/24 05:50:08;;;;;;;;;;;17.70;99.90;;;;;;5031639;28;20041;-77
2022/08/24 05:52:34;;;;;;;0.30;0.30;;;17.80;99.90;;;;;;5053996;28;19967;-77
2022/08/24 05:55:00;;;;;;;;;;;17.90;99.90;;;;;;5047776;28;20041;-77
2022/08/24 05:57:31;;;;;;;0.30;0.30;;;18.10;99.90;;;;;;5053442;28;19916;-76
2022/08/24 05:59:56;;;;;;;0.28;0.28;;;18.20;99.90;;;;;;5054713;28;20486;-77
2022/08/24 06:02:22;;;;;;;;;;;18.20;99.90;;;;;;5020520;28;20056;-77
2022/08/24 06:04:48;;;;;;;0.30;0.30;;;18.30;99.90;;;;;;5051447;28;19921;-76
2022/08/24 06:07:14;;;;;;;;;;;18.40;99.90;;;;;;5054910;28;20545;-77
2022/08/24 06:09:41;;;;;;;0.20;0.20;;;18.50;99.90;;;;;;5052014;28;19962;-77
2022/08/24 06:12:07;;;;;;;0.17;0.17;;;18.60;99.90;;;;;;5052546;28;20430;-76
2022/08/24 06:14:34;;;;;;;0.20;0.20;;;18.70;99.90;;;;;;5035847;28;20053;-77
2022/08/24 06:17:06;;;;;;;0.20;0.20;;;18.80;99.90;;;;;;5033674;28;20076;-77
2022/08/24 06:19:32;;;;;;;0.20;0.20;;;19.00;99.90;;;;;;5056713;28;20140;-78
2022/08/24 06:21:58;;;;;;;0.13;0.13;;;19.20;99.90;;;;;;5051126;28;20041;-77
2022/08/24 06:27:20;;;;;;;0.30;0.30;;;19.50;99.90;;;;;;5050863;28;20045;-77
2022/08/24 06:29:46;;;;;;;;;;;19.60;99.90;;;;;;5052486;28;20102;-77
2022/08/24 06:32:11;;;;;;;0.30;0.30;;;19.80;99.90;;;;;;5051983;28;19923;-77
2022/08/24 06:34:38;;;;;;;;;;;19.90;99.90;;;;;;5050352;28;20037;-77
2022/08/24 06:37:04;;;;;;;0.20;0.20;;;20.00;99.90;;;;;;5050843;28;19917;-77
2022/08/24 06:39:30;;;;;;;0.40;0.40;;;20.10;99.90;;;;;;5051889;28;20098;-78
2022/08/24 06:41:56;;;;;;;0.28;0.28;;;20.30;99.90;;;;;;5031776;28;20069;-77
2022/08/24 06:44:21;;;;;;;0.20;0.20;;;20.40;99.90;;;;;;5030859;28;20079;-78
2022/08/24 06:46:48;;;;;;;0.10;0.10;;;20.50;99.90;;;;;;5047855;28;20502;-78
2022/08/24 06:49:14;;;;;;;0.20;0.20;;;20.70;99.90;;;;;;5049430;28;20084;-78
2022/08/24 06:51:40;;;;;;;0.10;0.10;;;20.80;99.90;;;;;;5042533;28;20076;-78
2022/08/24 06:54:05;;;;;;;;;;;20.90;99.90;;;;;;5033654;28;20041;-78
2022/08/24 06:56:32;;;;;;;0.25;0.25;;;21.00;99.90;;;;;;5052869;28;19924;-77
2022/08/24 06:58:59;;;;;;;0.38;0.38;;;21.10;99.90;;;;;;5050346;28;20061;-78
2022/08/24 07:01:27;;;;;;;0.63;0.63;;;21.30;99.90;;;;;;5047839;28;20548;-78
2022/08/24 07:03:53;;;;;;;0.50;0.50;;;21.50;99.90;;;;;;5047556;28;20036;-78
2022/08/24 07:06:20;;;;;;;0.38;0.38;;;21.60;99.90;;;;;;5034113;28;20045;-78
2022/08/24 07:08:46;;;;;;;0.30;0.30;;;21.80;99.90;;;;;;5050018;28;20116;-77
2022/08/24 07:11:13;;;;;;;0.45;0.45;;;21.90;99.90;;;;;;5047647;28;20159;-78
2022/08/24 07:13:40;;;;;;;0.22;0.22;;;22.00;99.90;;;;;;5049346;28;20044;-79
2022/08/24 07:16:08;;;;;;;0.38;0.35;;;22.10;99.90;;;;;;5050057;28;20052;-77
2022/08/24 07:18:34;;;;;;;0.20;0.20;;;22.20;99.90;;;;;;5054485;28;20390;-77
2022/08/24 07:21:03;;;;;;;0.22;0.22;;;22.40;99.90;;;;;;5058090;28;20047;-77
2022/08/24 07:23:31;;;;;;;0.20;0.20;;;22.50;99.90;;;;;;5051801;28;20049;-78
2022/08/24 07:26:04;;;;;;;0.57;0.57;;;22.50;99.90;;;;;;5050343;28;20482;-78
2022/08/24 07:28:36;;;;;;;0.30;0.30;;;22.60;99.90;;;;;;5060209;28;20044;-79
2022/08/24 07:31:02;;;;;;;0.40;0.40;;;;;;;;;;5034420;28;20044;-75
2022/08/24 07:33:29;;;;;;;0.28;0.28;;;;;;;;;;5050729;28;20056;-75
2022/08/24 07:35:55;;;;;;;0.60;0.60;;;;;;;;;;5029749;28;20045;-76
2022/08/24 07:38:21;;;;;;;0.55;0.43;;;;;;;;;;5055834;28;20044;-76
2022/08/24 07:40:47;;;;;;;0.40;0.40;;;;;;;;;;5034931;28;20045;-75
2022/08/24 07:43:14;;;;;;;0.17;0.17;;;;;;;;;;5059992;28;20383;-76
2022/08/24 07:45:41;;;;;;;1.52;1.42;;;;;;;;;;5046425;28;20048;-75
2022/08/24 07:48:08;;;;;;;0.77;0.70;;;;;;;;;;5036825;28;20106;-75
2022/08/24 07:50:33;;;;;;;0.70;0.60;;;23.40;99.90;;;;;;5041833;28;20044;-76
2022/08/24 07:52:59;;;;;;;0.73;0.47;;;23.40;99.90;;;;;;5050574;28;20045;-76
2022/08/24 07:55:25;;;;;;;0.65;0.65;;;23.50;99.90;;;;;;5054147;28;20418;-75
2022/08/24 07:57:52;;;;;;;0.30;0.30;;;24.00;99.90;;;;;;5031962;28;20044;-75
2022/08/24 08:00:20;;;;;;;0.90;0.90;;;23.60;99.90;;;;;;5052133;28;20052;-76
2022/08/24 08:02:47;;;;;;;0.40;0.40;;;24.00;99.90;;;;;;5060752;28;20052;-76
2022/08/24 08:05:15;;;;;;;1.45;1.17;;;24.00;99.90;;;;;;5050208;28;20080;-76
2022/08/24 08:07:41;;;;;;;0.35;0.35;;;23.90;99.90;;;;;;5049717;28;20371;-76
2022/08/24 08:10:08;;;;;;;0.30;0.30;;;24.20;99.90;;;;;;5070349;28;20102;-75
2022/08/24 08:12:34;;;;;;;0.82;0.82;;;24.10;99.90;;;;;;5050063;28;20040;-75
2022/08/24 08:14:59;;;;;;;0.30;0.30;;;24.20;99.90;;;;;;5049629;28;20359;-76
2022/08/24 08:17:25;;;;;;;0.25;0.25;;;24.20;99.90;;;;;;5031892;28;20044;-76
2022/08/24 08:19:51;;;;;;;1.00;0.32;;;24.40;99.90;;;;;;5051273;28;20044;-76
2022/08/24 08:25:03;;;;;;;0.32;0.32;;;24.60;99.90;;;;;;5045681;28;20048;-76
2022/08/24 08:27:28;;;;;;;0.30;0.30;;;24.50;99.90;;;;;;5049456;28;20045;-76
2022/08/24 08:29:54;;;;;;;0.30;0.30;;;24.80;99.90;;;;;;5031989;28;20457;-76
2022/08/24 08:32:20;;;;;;;0.63;0.60;;;24.90;99.90;;;;;;5049523;28;20124;-76
2022/08/24 08:34:46;;;;;;;0.57;0.43;;;24.90;99.90;;;;;;5016801;28;20064;-76
2022/08/24 08:37:13;;;;;;;0.28;0.28;;;24.90;99.90;;;;;;5032968;28;20040;-76
2022/08/24 08:39:39;;;;;;;0.40;0.40;;;25.20;99.90;;;;;;5048527;28;20061;-76
2022/08/24 08:42:22;;;;;;;0.68;0.40;;;25.00;99.90;;;;;;5048850;28;20092;-75
2022/08/24 08:44:54;;;;;;;0.73;0.40;;;25.50;99.90;;;;;;5049470;28;20116;-77
2022/08/24 08:47:29;;;;;;;0.30;0.30;;;25.40;99.90;;;;;;5053566;28;20048;-76
2022/08/24 08:49:58;;;;;;;0.38;0.38;;;25.30;99.90;;;;;;5048192;28;20041;-76
2022/08/24 08:52:50;;;;;;;0.20;0.20;;;25.40;99.90;;;;;;5049975;28;20072;-76
2022/08/24 08:55:25;;;;;;;0.40;0.40;;;25.60;99.90;;;;;;5049311;28;20041;-76
2022/08/24 08:57:59;;;;;;;0.60;0.60;;;25.60;99.90;;;;;;5048613;28;20127;-76
2022/08/24 09:00:44;;;;;;;0.63;0.60;;;25.60;99.90;;;;;;5051793;28;20386;-76
2022/08/24 09:03:47;;;;;;;0.20;0.20;;;25.60;99.90;;;;;;5047169;28;20128;-75
2022/08/24 09:06:28;;;;;;;0.20;0.20;;;25.60;99.90;;;;;;5032928;28;20789;-78
2022/08/24 09:09:18;;;;;;;0.40;0.40;;;25.70;99.90;;;;;;5043659;28;20041;-79
2022/08/24 09:12:16;;;;;;;0.25;0.25;;;25.90;99.90;;;;;;5043345;28;20125;-78
2022/08/24 09:15:08;;;;;;;0.30;0.30;;;26.20;99.90;;;;;;5051456;28;20072;-78
2022/08/24 09:17:53;;;;;;;0.80;0.40;;;26.10;99.90;;;;;;5049635;28;20040;-78
2022/08/24 09:20:35;;;;;;;0.20;0.20;;;26.20;99.90;;;;;;5048552;28;20064;-77
2022/08/24 09:23:31;;;;;;;0.30;0.30;;;26.20;99.90;;;;;;5049140;28;20040;-78
2022/08/24 09:26:18;;;;;;;0.30;0.30;;;26.30;99.90;;;;;;5044240;28;20053;-78
2022/08/24 09:28:44;;;;;;;;;;;26.30;99.90;;;;;;5049965;28;20079;-77
2022/08/24 09:31:28;;;;;;;0.43;0.43;;;26.50;99.90;;;;;;5050721;28;19955;-77
2022/08/24 09:34:02;;;;;;;0.60;0.60;;;26.70;99.90;;;;;;5036579;28;20040;-78
2022/08/24 09:36:47;;;;;;;0.60;0.60;;;26.70;99.90;;;;;;5033583;28;20083;-78
2022/08/24 09:39:35;;;;;;;0.30;0.30;;;26.60;99.90;;;;;;5052680;28;20123;-78
2022/08/24 09:42:26;;;;;;;0.20;0.20;;;26.60;99.90;;;;;;5050772;28;20499;-79
2022/08/24 09:45:10;;;;;;;0.25;0.25;;;26.70;99.90;;;;;;5056856;28;20048;-78
2022/08/24 09:48:07;;;;;;;0.98;0.68;;;27.00;99.90;;;;;;5045999;28;20086;-78
2022/08/24 09:51:04;;;;;;;0.30;0.30;;;26.90;99.90;;;;;;5052207;28;20055;-79
2022/08/24 09:53:38;;;;;;;0.20;0.20;;;27.00;99.90;;;;;;5048392;28;20103;-78
2022/08/24 09:56:30;;;;;;;0.20;0.20;;;27.10;99.90;;;;;;5061256;28;20550;-78
2022/08/24 09:59:18;;;;;;;0.38;0.38;;;27.00;99.90;;;;;;5050263;28;20067;-79
2022/08/24 10:02:23;;;;;;;0.82;0.80;;;27.00;99.90;;;;;;5037013;28;20160;-78
2022/08/24 10:05:26;;;;;;;0.20;0.20;;;27.10;99.90;;;;;;5046113;28;20044;-79
2022/08/24 10:08:26;;;;;;;0.30;0.30;;;27.10;99.90;;;;;;5036373;28;20472;-78
2022/08/24 10:11:17;;;;;;;0.47;0.47;;;27.10;99.90;;;;;;5012537;28;20304;-79
2022/08/24 10:13:55;;;;;;;0.40;0.40;;;27.20;99.90;;;;;;5035798;28;20029;-79
2022/08/24 10:16:42;;;;;;;1.85;1.13;;;27.20;99.90;;;;;;5051606;28;20048;-78
2022/08/24 10:19:38;;;;;;;0.30;0.30;;;27.30;99.90;;;;;;5051809;28;20036;-78
2022/08/24 10:22:31;;;;;;;1.15;0.82;;;27.40;99.90;;;;;;5047925;28;20513;-78
2022/08/24 10:25:29;;;;;;;0.30;0.30;;;27.40;99.90;;;;;;5052481;28;20126;-79
2022/08/24 10:27:55;;;;;;;0.63;0.63;;;27.60;99.90;;;;;;5064980;28;20033;-77
2022/08/24 10:30:45;;;;;;;0.43;0.32;;;27.60;99.90;;;;;;5052918;28;20064;-78
2022/08/24 10:33:37;;;;;;;0.20;0.20;;;27.60;99.90;;;;;;5051558;28;20471;-79
2022/08/24 10:36:09;;;;;;;0.40;0.40;;;28.00;99.90;;;;;;5050889;28;20040;-79
2022/08/24 10:41:53;;;;;;;0.35;0.35;;;28.20;99.90;;;;;;5051241;28;20056;-79
2022/08/24 10:44:42;;;;;;;0.50;0.50;;;28.00;99.90;;;;;;5056333;28;20044;-78
2022/08/24 10:47:33;;;;;;;0.63;0.63;;;28.10;99.90;;;;;;5055289;28;20431;-79
2022/08/24 10:50:19;;;;;;;0.22;0.22;;;28.20;99.90;;;;;;5041065;28;20052;-78
2022/08/24 10:52:48;;;;;;;2.55;0.50;;;28.20;99.90;;;;;;5051810;28;20441;-78
2022/08/24 10:55:18;;;;;;;19.38;0.68;;;28.40;99.90;;;;;;5050224;28;20098;-78
2022/08/24 10:57:56;;;;;;;0.50;0.50;;;28.40;99.90;;;;;;5050899;28;20478;-78
2022/08/24 11:00:27;;;;;;;0.30;0.30;;;28.30;99.90;;;;;;5048241;28;20525;-78
2022/08/24 11:03:07;;;;;;;0.43;0.43;;;28.50;99.90;;;;;;5042099;28;20371;-78
2022/08/24 11:05:56;;;;;;;;;;;28.60;99.90;;;;;;5038597;28;20559;-77
2022/08/24 11:08:27;;;;;;;0.50;0.50;;;28.70;99.90;;;;;;5048112;28;19957;-78
2022/08/24 11:11:02;;;;;;;0.57;0.50;;;28.90;99.90;;;;;;5051665;28;20045;-79
2022/08/24 11:13:28;;;;;;;0.22;0.22;;;29.00;99.90;;;;;;5055100;28;20052;-79
2022/08/24 11:15:58;;;;;;;0.38;0.38;;;29.00;99.90;;;;;;5070408;28;20032;-79
2022/08/24 11:18:25;;;;;;;0.47;0.47;;;29.10;99.90;;;;;;5055318;28;20727;-79
2022/08/24 11:20:53;;;;;;;0.43;0.40;;;29.30;99.90;;;;;;5042614;28;20119;-79
2022/08/24 11:23:27;;;;;;;0.40;0.40;;;29.50;99.90;;;;;;5041580;28;20045;-77
2022/08/24 11:26:02;;;;;;;0.47;0.30;;;29.70;99.90;;;;;;5064298;28;20117;-81
2022/08/24 11:28:43;;;;;;;0.20;0.20;;;30.00;99.90;;;;;;5057777;28;20045;-80
2022/08/24 11:31:21;;;;;;;0.60;0.60;;;30.20;97.60;;;;;;5036865;28;20045;-82
2022/08/24 11:33:59;;;;;;;0.10;0.10;;;30.30;99.70;;;;;;5051477;28;20037;-79
2022/08/24 11:36:27;;;;;;;0.50;0.50;;;30.40;96.30;;;;;;5018477;28;20514;-80
2022/08/24 11:39:33;;;;;;;1.65;0.85;;;30.50;99.90;;;;;;5046071;28;20052;-79
2022/08/24 11:42:35;;;;;;;4.85;0.85;;;30.40;97.40;;;;;;4970517;28;20039;-80
2022/08/24 11:45:16;;;;;;;0.30;0.30;;;30.30;97.10;;;;;;5046397;28;20044;-80
2022/08/24 11:48:02;;;;;;;0.20;0.20;;;30.40;95.70;;;;;;5041006;28;20047;-79
2022/08/24 11:51:00;;;;;;;1.83;0.95;;;30.70;94.50;;;;;;5050953;28;20120;-82
2022/08/24 11:53:37;;;;;;;0.20;0.20;;;31.20;96.70;;;;;;5041946;28;20045;-80
2022/08/24 11:56:10;;;;;;;1.75;0.40;;;31.40;99.80;;;;;;5061172;28;20067;-80
2022/08/24 11:58:48;;;;;;;0.40;0.40;;;31.60;96.20;;;;;;5060732;28;20033;-81
2022/08/24 12:01:24;;;;;;;0.17;0.17;;;31.50;97.90;;;;;;5040986;28;20475;-79
2022/08/24 12:04:02;;;;;;;0.70;0.45;;;31.40;92.10;;;;;;5048847;28;20505;-80
2022/08/24 12:06:46;;;;;;;0.20;0.20;;;31.40;99.00;;;;;;5063137;28;20059;-79
2022/08/24 12:09:39;;;;;;;0.40;0.40;;;31.30;97.50;;;;;;5049162;28;20033;-78
2022/08/24 12:12:25;;;;;;;0.15;0.15;;;31.00;95.00;;;;;;5038887;28;20535;-78
2022/08/24 12:15:09;;;;;;;;;;;30.70;93.20;;;;;;5051435;28;20076;-80
2022/08/24 12:17:55;;;;;;;0.10;0.10;;;30.50;93.50;;;;;;5049840;28;19927;-80
2022/08/24 12:20:45;;;;;;;0.45;0.28;;;30.40;93.60;;;;;;5040094;28;20040;-78
2022/08/24 12:23:29;;;;;;;0.20;0.20;;;30.70;96.60;;;;;;5054058;28;20055;-80
2022/08/24 12:26:03;;;;;;;0.50;0.50;;;30.70;95.50;;;;;;5050777;28;20453;-78
2022/08/24 12:28:40;;;;;;;0.20;0.20;;;30.80;94.20;;;;;;5059914;28;20393;-80
2022/08/24 12:31:35;;;;;;;0.40;0.40;;;31.00;92.30;;;;;;5055658;28;20074;-80
2022/08/24 12:34:11;;;;;;;0.00;0.00;;;31.50;91.40;;;;;;5070479;28;20048;-80
2022/08/24 12:37:08;;;;;;;0.10;0.10;;;31.80;88.20;;;;;;5044035;28;20341;-80
2022/08/24 12:39:59;;;;;;;0.25;0.25;;;31.60;88.90;;;;;;5036482;28;20048;-79
2022/08/24 12:42:38;;;;;;;0.13;0.13;;;31.50;93.50;;;;;;5008684;28;20394;-81
2022/08/24 12:45:12;;;;;;;1.77;0.40;;;31.60;90.00;;;;;;5062996;28;20546;-79
2022/08/24 12:47:58;;;;;;;0.22;0.20;;;32.00;88.50;;;;;;5049706;28;20049;-79
2022/08/24 12:50:51;;;;;;;0.33;0.33;;;32.20;90.70;;;;;;5049586;28;20124;-79
2022/08/24 12:53:25;;;;;;;0.40;0.20;;;32.30;84.30;;;;;;5032468;28;20041;-79
2022/08/24 12:56:05;;;;;;;0.57;0.40;;;32.40;83.90;;;;;;5058008;28;20504;-78
2022/08/24 12:58:53;;;;;;;0.40;0.40;;;32.50;85.90;;;;;;5062626;28;20079;-81
2022/08/24 13:01:20;;;;;;;0.20;0.20;;;32.30;79.70;;;;;;5038599;28;20053;-81
2022/08/24 13:04:01;;;;;;;0.30;0.30;;;32.00;81.70;;;;;;5061768;28;20153;-82
2022/08/24 13:06:50;;;;;;;0.68;0.40;;;31.80;81.00;;;;;;5068896;28;20040;-80
2022/08/24 13:10:01;;;;;;;0.52;0.52;;;31.80;85.70;;;;;;5048852;28;20045;-80
2022/08/24 13:12:42;;;;;;;0.40;0.40;;;31.80;85.40;;;;;;4942263;28;20043;-79
2022/08/24 13:15:26;;;;;;;0.35;0.35;;;31.70;86.80;;;;;;5025674;28;20084;-79
2022/08/24 13:18:07;;;;;;;0.40;0.40;;;31.60;85.80;;;;;;5032284;28;20036;-79
2022/08/24 13:20:42;;;;;;;0.38;0.38;;;31.20;85.00;;;;;;5049177;28;20060;-79
2022/08/24 13:23:10;;;;;;;0.22;0.22;;;31.10;83.30;;;;;;5049682;28;20049;-80
2022/08/24 13:25:57;;;;;;;0.10;0.10;;;31.30;86.60;;;;;;5050324;28;20073;-79
2022/08/24 13:28:23;;;;;;;0.45;0.38;;;31.60;84.80;;;;;;5036993;28;20087;-80
2022/08/24 13:31:16;;;;;;;0.40;0.40;;;31.70;85.90;;;;;;5050533;28;20537;-81
2022/08/24 13:33:51;;;;;;;0.10;0.10;;;31.80;82.70;;;;;;5062982;28;20068;-80
2022/08/24 13:36:43;;;;;;;0.10;0.10;;;31.70;84.20;;;;;;5048663;28;20041;-78
2022/08/24 13:39:18;;;;;;;0.22;0.22;;;31.40;84.00;;;;;;5048735;28;21278;-81
2022/08/24 13:41:54;;;;;;;0.10;0.10;;;31.20;86.50;;;;;;5048733;28;20555;-79